createdAt,value
2023-01-19T00:00:54.983Z,100154.28
2023-01-19T00:03:22.219Z,100152.06
2023-01-19T00:05:49.358Z,100152.41
2023-01-19T00:08:17.028Z,100150.53
2023-01-19T00:10:47.128Z,100163.22
2023-01-19T00:13:15.729Z,100156.69
2023-01-19T00:15:43.688Z,100165.03
2023-01-19T00:18:11.122Z,100169.13
2023-01-19T00:20:42.009Z,100170.41
2023-01-19T00:23:09.633Z,100180.34
2023-01-19T00:25:42.763Z,100178.28
2023-01-19T00:28:15.444Z,100170.09
2023-01-19T00:30:43.615Z,100191.63
2023-01-19T00:33:13.906Z,100191.94
2023-01-19T00:35:42.785Z,100190.34
2023-01-19T00:38:11.009Z,100190.66
2023-01-19T00:40:38.307Z,100189.41
2023-01-19T00:43:05.385Z,100185.69
2023-01-19T00:45:34.044Z,100174.50
2023-01-19T00:48:01.440Z,100183.50
2023-01-19T00:50:30.030Z,100175.31
2023-01-19T00:52:58.281Z,100181.41
2023-01-19T00:55:25.578Z,100186.41
2023-01-19T00:57:52.592Z,100192.81
2023-01-19T01:00:21.025Z,100194.09
2023-01-19T01:02:49.727Z,100192.34
2023-01-19T01:05:17.171Z,100187.38
2023-01-19T01:07:49.591Z,100192.16
2023-01-19T01:10:23.042Z,100197.16
2023-01-19T01:13:20.345Z,100196.19
2023-01-19T01:15:37.776Z,100206.13
2023-01-19T01:18:04.889Z,100201.63
2023-01-19T01:20:33.850Z,100204.19
2023-01-19T01:23:01.878Z,100202.09
2023-01-19T01:25:31.220Z,100204.34
2023-01-19T01:27:58.293Z,100215.69
2023-01-19T01:30:25.327Z,100209.91
2023-01-19T01:32:52.502Z,100225.47
2023-01-19T01:35:19.585Z,100211.84
2023-01-19T01:37:46.633Z,100221.47
2023-01-19T01:40:16.761Z,100221.28
2023-01-19T01:42:45.591Z,100225.13
2023-01-19T01:45:32.942Z,100229.28
2023-01-19T01:48:10.163Z,100227.69
2023-01-19T01:51:03.394Z,100225.59
2023-01-19T01:53:33.797Z,100236.50
2023-01-19T01:56:03.000Z,100237.13
2023-01-19T01:58:31.729Z,100238.88
2023-01-19T02:01:17.288Z,100241.59
2023-01-19T02:03:44.563Z,100236.16
2023-01-19T02:06:13.798Z,100231.03
2023-01-19T02:09:17.486Z,100237.44
2023-01-19T02:12:03.233Z,100233.59
2023-01-19T02:14:30.277Z,100228.50
2023-01-19T02:16:57.426Z,100203.97
2023-01-19T02:19:34.028Z,100202.84
2023-01-19T02:22:06.839Z,100206.69
2023-01-19T02:24:34.203Z,100229.13
2023-01-19T02:27:01.883Z,100232.13
2023-01-19T02:29:28.978Z,100239.50
2023-01-19T02:31:57.431Z,100244.16
2023-01-19T02:34:24.458Z,100253.72
2023-01-19T02:36:54.569Z,100243.47
2023-01-19T02:39:45.551Z,100258.03
2023-01-19T02:42:24.158Z,100256.72
2023-01-19T02:44:53.805Z,100259.28
2023-01-19T02:47:20.953Z,100255.25
2023-01-19T02:50:00.945Z,100246.28
2023-01-19T02:52:28.575Z,100244.38
2023-01-19T02:55:19.511Z,100250.31
2023-01-19T02:57:55.269Z,100249.19
2023-01-19T03:00:44.916Z,100245.78
2023-01-19T03:03:40.748Z,100250.63
2023-01-19T03:06:27.638Z,100240.69
2023-01-19T03:09:23.867Z,100239.06
2023-01-19T03:12:03.525Z,100238.06
2023-01-19T03:14:34.247Z,100240.00
2023-01-19T03:17:05.457Z,100249.75
2023-01-19T03:19:37.791Z,100251.16
2023-01-19T03:22:09.917Z,100246.34
2023-01-19T03:24:40.730Z,100236.22
2023-01-19T03:27:17.728Z,100248.72
2023-01-19T03:29:52.488Z,100237.50
2023-01-19T03:32:32.679Z,100243.09
2023-01-19T03:35:03.431Z,100249.44
2023-01-19T03:37:32.451Z,100243.66
2023-01-19T03:39:59.735Z,100243.97
2023-01-19T03:42:28.474Z,100249.25
2023-01-19T03:44:57.464Z,100245.53
2023-01-19T03:47:25.771Z,100260.72
2023-01-19T03:49:53.738Z,100252.41
2023-01-19T03:52:33.363Z,100259.25
2023-01-19T03:55:02.394Z,100254.59
2023-01-19T03:57:29.631Z,100255.41
2023-01-19T03:59:57.165Z,100263.75
2023-01-19T04:02:24.952Z,100259.44
2023-01-19T04:04:52.107Z,100258.94
2023-01-19T04:07:19.186Z,100268.53
2023-01-19T04:09:46.358Z,100267.22
2023-01-19T04:12:13.343Z,100270.44
2023-01-19T04:14:40.377Z,100269.94
2023-01-19T04:17:07.297Z,100263.72
2023-01-19T04:19:34.521Z,100262.59
2023-01-19T04:22:02.126Z,100261.28
2023-01-19T04:24:29.213Z,100262.69
2023-01-19T04:26:56.190Z,100257.59
2023-01-19T04:29:24.568Z,100254.69
2023-01-19T04:31:51.556Z,100270.00
2023-01-19T04:34:18.676Z,100270.25
2023-01-19T04:36:46.845Z,100284.50
2023-01-19T04:39:13.916Z,100276.84
2023-01-19T04:41:40.910Z,100278.78
2023-01-19T04:44:07.970Z,100283.09
2023-01-19T04:46:35.213Z,100295.38
2023-01-19T04:49:02.299Z,100292.97
2023-01-19T04:51:29.734Z,100307.47
2023-01-19T04:53:57.899Z,100314.97
2023-01-19T04:56:24.969Z,100319.38
2023-01-19T04:58:52.121Z,100317.59
2023-01-19T05:01:19.193Z,100326.16
2023-01-19T05:03:46.782Z,100327.09
2023-01-19T05:06:13.882Z,100321.03
2023-01-19T05:08:40.920Z,100329.81
2023-01-19T05:11:08.096Z,100324.38
2023-01-19T05:13:35.093Z,100329.81
2023-01-19T05:16:02.632Z,100321.13
2023-01-19T05:18:36.061Z,100333.00
2023-01-19T05:21:03.724Z,100333.31
2023-01-19T05:23:32.844Z,100351.81
2023-01-19T05:26:02.141Z,100344.59
2023-01-19T05:28:30.967Z,100343.00
2023-01-19T05:30:58.244Z,100349.03
2023-01-19T05:33:26.429Z,100346.59
2023-01-19T05:35:54.578Z,100345.00
2023-01-19T05:38:34.325Z,100352.44
2023-01-19T05:41:02.663Z,100360.09
2023-01-19T05:43:29.673Z,100357.47
2023-01-19T05:45:56.703Z,100373.25
2023-01-19T05:48:23.933Z,100378.97
2023-01-19T05:50:50.951Z,100384.69
2023-01-19T05:53:18.057Z,100382.59
2023-01-19T05:55:45.157Z,100389.25
2023-01-19T05:58:12.228Z,100386.28
2023-01-19T06:00:39.293Z,100388.72
2023-01-19T06:03:06.767Z,100381.50
2023-01-19T06:05:34.175Z,100384.59
2023-01-19T06:08:02.564Z,100399.25
2023-01-19T06:10:29.747Z,100391.31
2023-01-19T06:12:57.261Z,100393.03
2023-01-19T06:15:24.324Z,100394.94
2023-01-19T06:17:51.383Z,100397.84
2023-01-19T06:20:18.546Z,100395.94
2023-01-19T06:22:45.568Z,100402.38
2023-01-19T06:25:12.667Z,100404.50
2023-01-19T06:27:43.827Z,100395.97
2023-01-19T06:30:11.509Z,100402.44
2023-01-19T06:32:38.662Z,100398.28
2023-01-19T06:35:07.989Z,100405.56
2023-01-19T06:37:35.724Z,100410.91
2023-01-19T06:40:03.016Z,100411.59
2023-01-19T06:42:30.176Z,100403.84
2023-01-19T06:44:57.156Z,100412.59
2023-01-19T06:47:24.164Z,100418.16
2023-01-19T06:49:51.173Z,100417.31
2023-01-19T06:52:20.048Z,100422.06
2023-01-19T06:54:47.629Z,100421.66
2023-01-19T06:57:16.944Z,100417.81
2023-01-19T06:59:44.424Z,100406.53
2023-01-19T07:02:26.695Z,100409.75
2023-01-19T07:04:56.716Z,100413.16
2023-01-19T07:07:23.839Z,100419.47
2023-01-19T07:09:51.447Z,100425.00
2023-01-19T07:12:21.176Z,100429.88
2023-01-19T07:14:49.652Z,100432.50
2023-01-19T07:17:16.986Z,100437.19
2023-01-19T07:19:44.025Z,100446.84
2023-01-19T07:22:11.042Z,100442.59
2023-01-19T07:24:38.405Z,100449.84
2023-01-19T07:27:05.680Z,100456.44
2023-01-19T07:29:32.885Z,100455.75
2023-01-19T07:32:00.177Z,100466.06
2023-01-19T07:34:27.279Z,100462.91
2023-01-19T07:36:56.165Z,100471.75
2023-01-19T07:39:23.211Z,100477.88
2023-01-19T07:41:50.306Z,100475.50
2023-01-19T07:44:17.305Z,100477.66
2023-01-19T07:46:44.397Z,100473.22
2023-01-19T07:49:11.883Z,100467.44
2023-01-19T07:51:39.087Z,100479.44
2023-01-19T07:54:08.703Z,100481.06
2023-01-19T07:56:35.781Z,100477.88
2023-01-19T07:59:02.970Z,100493.75
2023-01-19T08:01:30.433Z,100496.66
2023-01-19T08:03:57.652Z,100491.22
2023-01-19T08:06:30.407Z,100498.78
2023-01-19T08:08:57.600Z,100495.13
2023-01-19T08:11:24.556Z,100499.34
2023-01-19T08:13:51.905Z,100508.19
2023-01-19T08:16:19.175Z,100506.09
2023-01-19T08:18:49.305Z,100507.84
2023-01-19T08:21:16.775Z,100504.41
2023-01-19T08:23:44.546Z,100508.84
2023-01-19T08:26:27.577Z,100499.34
2023-01-19T08:28:55.183Z,100504.59
2023-01-19T08:31:24.748Z,100496.31
2023-01-19T08:33:52.572Z,100506.09
2023-01-19T08:36:20.312Z,100506.50
2023-01-19T08:38:47.931Z,100508.09
2023-01-19T08:41:17.138Z,100514.34
2023-01-19T08:43:47.733Z,100509.94
2023-01-19T08:46:17.777Z,100515.84
2023-01-19T08:48:51.084Z,100519.75
2023-01-19T08:51:18.701Z,100514.13
2023-01-19T08:53:45.745Z,100514.28
2023-01-19T08:56:14.036Z,100518.97
2023-01-19T08:58:43.303Z,100517.00
2023-01-19T09:01:11.661Z,100525.84
2023-01-19T09:03:38.806Z,100513.66
2023-01-19T09:06:07.364Z,100528.63
2023-01-19T09:08:34.669Z,100531.84
2023-01-19T09:11:01.869Z,100537.78
2023-01-19T09:13:29.213Z,100523.66
2023-01-19T09:15:56.510Z,100520.59
2023-01-19T09:18:23.946Z,100529.88
2023-01-19T09:20:51.585Z,100537.09
2023-01-19T09:23:22.811Z,100524.06
2023-01-19T09:25:55.722Z,100527.91
2023-01-19T09:28:22.885Z,100530.00
2023-01-19T09:30:50.143Z,100530.25
2023-01-19T09:33:19.674Z,100535.28
2023-01-19T09:35:48.657Z,100523.91
2023-01-19T09:38:16.978Z,100517.47
2023-01-19T09:41:04.799Z,100523.59
2023-01-19T09:43:47.614Z,100525.38
2023-01-19T09:46:33.492Z,100530.38
2023-01-19T09:49:07.892Z,100533.88
2023-01-19T09:51:41.374Z,100533.56
2023-01-19T09:54:15.938Z,100526.00
2023-01-19T09:56:45.449Z,100524.91
2023-01-19T09:59:20.509Z,100518.59
2023-01-19T10:02:06.367Z,100518.13
2023-01-19T10:04:55.247Z,100524.41
2023-01-19T10:07:40.668Z,100526.34
2023-01-19T10:10:19.950Z,100513.00
2023-01-19T10:13:08.826Z,100527.47
2023-01-19T10:16:03.215Z,100526.16
2023-01-19T10:18:47.953Z,100512.94
2023-01-19T10:21:26.518Z,100510.84
2023-01-19T10:24:22.077Z,100503.31
2023-01-19T10:26:52.673Z,100510.41
2023-01-19T10:29:22.338Z,100506.88
2023-01-19T10:31:52.833Z,100486.66
2023-01-19T10:34:23.178Z,100483.91
2023-01-19T10:37:00.595Z,100475.06
2023-01-19T10:39:27.855Z,100476.31
2023-01-19T10:41:59.189Z,100465.25
2023-01-19T10:44:29.481Z,100462.34
2023-01-19T10:47:00.004Z,100452.00
2023-01-19T10:49:37.841Z,100456.88
2023-01-19T10:52:19.318Z,100453.00
2023-01-19T10:54:48.643Z,100452.00
2023-01-19T10:57:28.170Z,100449.88
2023-01-19T10:59:55.445Z,100446.03
2023-01-19T11:02:29.282Z,100448.91
2023-01-19T11:04:59.316Z,100447.78
2023-01-19T11:07:26.494Z,100454.03
2023-01-19T11:10:24.219Z,100445.16
2023-01-19T11:13:01.527Z,100453.06
2023-01-19T11:15:33.374Z,100446.31
2023-01-19T11:18:02.485Z,100452.72
2023-01-19T11:20:36.035Z,100462.28
2023-01-19T11:23:15.004Z,100470.56
2023-01-19T11:25:47.214Z,100447.47
2023-01-19T11:28:19.533Z,100443.97
2023-01-19T11:31:16.846Z,100435.16
2023-01-19T11:33:52.178Z,100419.88
2023-01-19T11:36:22.761Z,100423.25
2023-01-19T11:38:57.109Z,100418.91
2023-01-19T11:41:24.373Z,100406.97
2023-01-19T11:43:58.140Z,100400.34
2023-01-19T11:46:31.363Z,100399.19
2023-01-19T11:49:20.259Z,100392.50
2023-01-19T11:52:00.213Z,100380.88
2023-01-19T11:54:33.373Z,100380.53
2023-01-19T11:57:00.801Z,100380.84
2023-01-19T11:59:28.687Z,100382.53
2023-01-19T12:01:59.467Z,100365.84
2023-01-19T12:04:40.610Z,100374.47
2023-01-19T12:07:10.928Z,100375.59
2023-01-19T12:09:48.985Z,100377.44
2023-01-19T12:12:32.178Z,100371.72
2023-01-19T12:15:10.717Z,100378.47
2023-01-19T12:17:46.414Z,100377.56
2023-01-19T12:20:26.886Z,100370.00
2023-01-19T12:23:38.496Z,100369.88
2023-01-19T12:26:17.606Z,100358.75
2023-01-19T12:28:48.028Z,100357.34
2023-01-19T12:31:17.867Z,100356.34
2023-01-19T12:33:45.125Z,100364.59
2023-01-19T12:36:41.165Z,100375.34
2023-01-19T12:39:19.319Z,100366.53
2023-01-19T12:41:47.439Z,100355.22
2023-01-19T12:44:19.950Z,100350.47
2023-01-19T12:47:03.659Z,100351.72
2023-01-19T12:49:39.912Z,100351.78
2023-01-19T12:52:28.844Z,100362.53
2023-01-19T12:55:13.227Z,100361.94
2023-01-19T12:57:59.008Z,100356.50
2023-01-19T13:00:26.222Z,100355.22
2023-01-19T13:03:04.765Z,100351.53
2023-01-19T13:05:33.102Z,100354.41
2023-01-19T13:08:04.981Z,100348.94
2023-01-19T13:10:55.937Z,100328.84
2023-01-19T13:13:27.802Z,100325.78
2023-01-19T13:15:56.877Z,100322.72
2023-01-19T13:18:30.264Z,100328.19
2023-01-19T13:21:07.443Z,100332.06
2023-01-19T13:23:52.697Z,100332.72
2023-01-19T13:26:22.449Z,100326.44
2023-01-19T13:29:12.517Z,100337.22
2023-01-19T13:31:42.846Z,100336.09
2023-01-19T13:34:15.487Z,100339.34
2023-01-19T13:36:46.563Z,100344.69
2023-01-19T13:39:38.173Z,100354.03
2023-01-19T13:42:24.622Z,100356.13
2023-01-19T13:44:54.848Z,100370.41
2023-01-19T13:47:25.447Z,100364.97
2023-01-19T13:49:57.473Z,100359.03
2023-01-19T13:52:31.515Z,100357.94
2023-01-19T13:55:04.778Z,100365.63
2023-01-19T13:57:41.656Z,100365.91
2023-01-19T14:00:12.307Z,100362.38
2023-01-19T14:02:58.980Z,100360.63
2023-01-19T14:05:30.907Z,100365.56
2023-01-19T14:08:18.320Z,100356.25
2023-01-19T14:10:54.355Z,100342.16
2023-01-19T14:13:25.424Z,100335.72
2023-01-19T14:15:56.088Z,100333.16
2023-01-19T14:18:30.253Z,100343.75
2023-01-19T14:21:14.829Z,100349.34
2023-01-19T14:23:44.922Z,100341.34
2023-01-19T14:26:49.886Z,100340.88
2023-01-19T14:29:32.729Z,100333.31
2023-01-19T14:32:21.155Z,100329.44
2023-01-19T14:34:51.305Z,100332.31
2023-01-19T14:37:24.701Z,100324.13
2023-01-19T14:39:55.331Z,100322.34
2023-01-19T14:42:29.196Z,100318.81
2023-01-19T14:44:59.148Z,100307.13
2023-01-19T14:47:37.616Z,100303.28
2023-01-19T14:50:26.127Z,100312.25
2023-01-19T14:53:00.548Z,100312.25
2023-01-19T14:55:45.119Z,100322.84
2023-01-19T14:58:14.298Z,100319.78
2023-01-19T15:00:43.021Z,100321.88
2023-01-19T15:03:10.551Z,100327.34
2023-01-19T15:05:44.364Z,100327.50
2023-01-19T15:08:20.432Z,100326.88
2023-01-19T15:10:47.476Z,100323.19
2023-01-19T15:13:25.845Z,100320.94
2023-01-19T15:15:53.616Z,100336.94
2023-01-19T15:18:24.542Z,100321.88
2023-01-19T15:20:52.357Z,100317.69
2023-01-19T15:23:19.642Z,100307.09
2023-01-19T15:25:46.885Z,100310.28
2023-01-19T15:28:17.795Z,100317.47
2023-01-19T15:30:45.221Z,100320.50
2023-01-19T15:33:21.432Z,100310.88
2023-01-19T15:35:49.268Z,100319.50
2023-01-19T15:38:16.407Z,100319.00
2023-01-19T15:40:43.933Z,100346.84
2023-01-19T15:43:11.596Z,100363.63
2023-01-19T15:45:39.631Z,100358.44
2023-01-19T15:48:08.795Z,100344.66
2023-01-19T15:50:39.075Z,100336.44
2023-01-19T15:53:07.444Z,100336.38
2023-01-19T15:55:34.725Z,100334.91
2023-01-19T15:58:01.926Z,100338.25
2023-01-19T16:00:30.510Z,100339.81
2023-01-19T16:02:58.108Z,100343.63
2023-01-19T16:05:33.979Z,100340.41
2023-01-19T16:08:10.023Z,100338.31
2023-01-19T16:10:37.063Z,100334.00
2023-01-19T16:13:04.705Z,100320.00
2023-01-19T16:15:34.355Z,100300.13
2023-01-19T16:18:01.473Z,100307.78
2023-01-19T16:20:28.632Z,100313.63
2023-01-19T16:22:58.582Z,100321.09
2023-01-19T16:25:33.214Z,100326.69
2023-01-19T16:28:00.467Z,100328.88
2023-01-19T16:30:27.519Z,100332.13
2023-01-19T16:32:54.604Z,100338.47
2023-01-19T16:35:21.834Z,100341.31
2023-01-19T16:37:51.937Z,100343.50
2023-01-19T16:40:20.500Z,100351.66
2023-01-19T16:42:47.607Z,100361.44
2023-01-19T16:45:14.921Z,100366.06
2023-01-19T16:47:42.097Z,100374.72
2023-01-19T16:50:12.118Z,100373.94
2023-01-19T16:52:40.587Z,100376.66
2023-01-19T16:55:09.644Z,100378.56
2023-01-19T16:57:39.185Z,100369.38
2023-01-19T17:00:09.561Z,100369.72
2023-01-19T17:02:36.885Z,100373.22
2023-01-19T17:05:04.771Z,100378.66
2023-01-19T17:07:31.829Z,100386.81
2023-01-19T17:09:59.024Z,100376.28
2023-01-19T17:12:25.985Z,100363.47
2023-01-19T17:14:53.132Z,100360.25
2023-01-19T17:17:20.116Z,100365.69
2023-01-19T17:19:47.199Z,100366.28
2023-01-19T17:22:15.174Z,100361.47
2023-01-19T17:24:42.570Z,100373.25
2023-01-19T17:27:10.323Z,100369.84
2023-01-19T17:29:37.354Z,100368.53
2023-01-19T17:32:04.562Z,100372.34
2023-01-19T17:34:31.720Z,100375.69
2023-01-19T17:37:03.169Z,100374.69
2023-01-19T17:39:30.642Z,100375.28
2023-01-19T17:41:57.817Z,100374.78
2023-01-19T17:44:25.224Z,100377.81
2023-01-19T17:46:52.368Z,100367.53
2023-01-19T17:49:19.612Z,100356.69
2023-01-19T17:51:51.940Z,100358.59
2023-01-19T17:54:19.325Z,100342.56
2023-01-19T17:56:46.337Z,100346.41
2023-01-19T17:59:13.517Z,100338.34
2023-01-19T18:01:41.484Z,100344.09
2023-01-19T18:04:09.647Z,100349.41
2023-01-19T18:06:38.167Z,100358.97
2023-01-19T18:09:07.639Z,100349.78
2023-01-19T18:11:35.617Z,100357.84
2023-01-19T18:14:03.028Z,100364.28
2023-01-19T18:16:30.855Z,100355.28
2023-01-19T18:18:58.037Z,100367.63
2023-01-19T18:21:28.312Z,100381.41
2023-01-19T18:24:01.463Z,100382.25
2023-01-19T18:26:30.019Z,100388.47
2023-01-19T18:28:58.314Z,100392.28
2023-01-19T18:31:27.069Z,100388.28
2023-01-19T18:33:54.488Z,100389.38
2023-01-19T18:36:22.146Z,100400.81
2023-01-19T18:38:49.769Z,100401.47
2023-01-19T18:41:19.356Z,100408.66
2023-01-19T18:43:47.088Z,100417.00
2023-01-19T18:46:15.363Z,100420.19
2023-01-19T18:48:42.440Z,100426.91
2023-01-19T18:51:14.734Z,100426.75
2023-01-19T18:53:43.831Z,100430.16
2023-01-19T18:56:15.564Z,100445.19
2023-01-19T18:58:43.707Z,100447.47
2023-01-19T19:01:37.132Z,100454.88
2023-01-19T19:04:04.518Z,100447.91
2023-01-19T19:06:31.481Z,100450.13
2023-01-19T19:08:59.676Z,100453.97
2023-01-19T19:11:27.379Z,100446.41
2023-01-19T19:13:56.940Z,100459.72
2023-01-19T19:16:24.162Z,100460.34
2023-01-19T19:18:51.600Z,100468.75
2023-01-19T19:21:20.754Z,100470.72
2023-01-19T19:23:52.648Z,100483.13
2023-01-19T19:26:20.419Z,100479.13
2023-01-19T19:28:48.807Z,100470.53
2023-01-19T19:31:20.816Z,100477.13
2023-01-19T19:33:48.997Z,100474.19
2023-01-19T19:36:16.456Z,100479.69
2023-01-19T19:38:47.569Z,100478.63
2023-01-19T19:41:23.170Z,100479.19
2023-01-19T19:43:50.645Z,100478.97
2023-01-19T19:46:20.259Z,100486.88
2023-01-19T19:48:48.331Z,100495.31
2023-01-19T19:51:22.874Z,100499.63
2023-01-19T19:53:51.992Z,100493.75
2023-01-19T19:56:23.662Z,100509.19
2023-01-19T19:58:52.380Z,100499.97
2023-01-19T20:01:24.116Z,100502.44
2023-01-19T20:03:53.888Z,100520.81
2023-01-19T20:06:24.103Z,100513.81
2023-01-19T20:08:53.909Z,100512.75
2023-01-19T20:11:24.378Z,100516.25
2023-01-19T20:13:51.950Z,100528.75
2023-01-19T20:16:22.246Z,100531.47
2023-01-19T20:18:51.774Z,100539.31
2023-01-19T20:21:24.922Z,100539.03
2023-01-19T20:24:02.207Z,100539.31
2023-01-19T20:26:35.525Z,100544.44
2023-01-19T20:29:06.897Z,100545.78
2023-01-19T20:31:46.546Z,100548.72
2023-01-19T20:34:18.042Z,100542.50
2023-01-19T20:36:49.749Z,100533.34
2023-01-19T20:39:18.917Z,100529.28
2023-01-19T20:41:45.947Z,100529.28
2023-01-19T20:44:16.302Z,100542.84
2023-01-19T20:46:43.533Z,100542.31
2023-01-19T20:49:10.924Z,100552.03
2023-01-19T20:51:41.833Z,100552.09
2023-01-19T20:54:11.045Z,100555.94
2023-01-19T20:56:39.125Z,100558.94
2023-01-19T20:59:07.235Z,100568.41
2023-01-19T21:01:34.855Z,100576.31
2023-01-19T21:04:02.100Z,100581.97
2023-01-19T21:06:29.402Z,100587.72
2023-01-19T21:08:57.712Z,100591.00
2023-01-19T21:11:25.704Z,100593.47
2023-01-19T21:13:56.301Z,100591.31
2023-01-19T21:16:26.217Z,100590.25
2023-01-19T21:18:53.518Z,100586.22
2023-01-19T21:21:30.543Z,100587.03
2023-01-19T21:24:01.455Z,100586.22
2023-01-19T21:26:33.576Z,100583.81
2023-01-19T21:29:05.416Z,100588.41
2023-01-19T21:31:32.552Z,100596.28
2023-01-19T21:34:22.735Z,100593.59
2023-01-19T21:36:49.873Z,100589.84
2023-01-19T21:39:21.773Z,100585.81
2023-01-19T21:41:48.998Z,100584.75
2023-01-19T21:44:22.131Z,100590.72
2023-01-19T21:46:52.160Z,100579.66
2023-01-19T21:49:22.915Z,100589.94
2023-01-19T21:51:53.033Z,100581.81
2023-01-19T21:54:22.844Z,100590.75
2023-01-19T21:56:49.931Z,100592.63
2023-01-19T21:59:18.504Z,100596.94
2023-01-19T22:01:47.232Z,100610.47
2023-01-19T22:04:17.168Z,100599.66
2023-01-19T22:06:44.410Z,100600.75
2023-01-19T22:09:11.408Z,100604.50
2023-01-19T22:11:47.132Z,100605.63
2023-01-19T22:14:14.149Z,100604.56
2023-01-19T22:16:41.251Z,100608.63
2023-01-19T22:19:12.825Z,100604.56
2023-01-19T22:21:40.247Z,100612.44
2023-01-19T22:24:07.801Z,100602.97
2023-01-19T22:26:37.067Z,100601.91
2023-01-19T22:29:05.966Z,100597.06
2023-01-19T22:31:33.078Z,100596.56
2023-01-19T22:34:00.171Z,100587.66
2023-01-19T22:36:28.841Z,100601.13
2023-01-19T22:39:01.391Z,100586.56
2023-01-19T22:41:32.149Z,100592.25
2023-01-19T22:44:02.490Z,100581.75
2023-01-19T22:46:32.331Z,100584.44
2023-01-19T22:48:59.948Z,100587.41
2023-01-19T22:51:29.635Z,100588.25
2023-01-19T22:53:57.094Z,100588.50
2023-01-19T22:56:26.733Z,100594.22
2023-01-19T22:58:54.524Z,100594.22
2023-01-19T23:01:33.793Z,100573.72
2023-01-19T23:04:02.440Z,100589.69
2023-01-19T23:06:31.891Z,100575.38
2023-01-19T23:09:01.145Z,100566.75
2023-01-19T23:11:34.277Z,100578.09
2023-01-19T23:14:04.152Z,100575.13
2023-01-19T23:16:31.206Z,100574.56
2023-01-19T23:18:58.743Z,100576.72
2023-01-19T23:21:28.740Z,100581.88
2023-01-19T23:23:57.857Z,100583.78
2023-01-19T23:26:25.635Z,100592.69
2023-01-19T23:28:59.139Z,100589.19
2023-01-19T23:31:29.059Z,100594.88
2023-01-19T23:33:58.876Z,100604.88
2023-01-19T23:36:28.810Z,100605.69
2023-01-19T23:38:57.822Z,100612.69
2023-01-19T23:41:26.594Z,100607.28
2023-01-19T23:43:53.706Z,100608.66
2023-01-19T23:46:21.803Z,100592.94
2023-01-19T23:48:49.328Z,100594.84
2023-01-19T23:51:23.189Z,100587.53
2023-01-19T23:53:51.217Z,100575.88
2023-01-19T23:56:24.679Z,100575.06
2023-01-19T23:59:02.834Z,100570.19
